sensor_id;sensor_type;location;lat;lon;timestamp;pressure;altitude;pressure_sealevel;temperature;humidity
27685;BME280;46113;50.130;8.526;2023-04-05T04:02:06;99720.56;;;-4.38;62.02
27685;BME280;46113;50.130;8.526;2023-04-05T04:04:33;99723.22;;;-4.30;62.55
27685;BME280;46113;50.130;8.526;2023-04-05T04:07:00;99724.06;;;-4.29;62.36
27685;BME280;46113;50.130;8.526;2023-04-05T04:09:28;99719.78;;;-4.29;62.20
27685;BME280;46113;50.130;8.526;2023-04-05T04:11:57;99715.44;;;-4.33;62.44
27685;BME280;46113;50.130;8.526;2023-04-05T04:14:23;99716.16;;;-4.45;61.82
27685;BME280;46113;50.130;8.526;2023-04-05T04:17:08;99718.75;;;-4.45;61.76
27685;BME280;46113;50.130;8.526;2023-04-05T04:19:50;99722.16;;;-4.51;61.61
27685;BME280;46113;50.130;8.526;2023-04-05T04:22:41;99720.53;;;-4.41;61.67
27685;BME280;46113;50.130;8.526;2023-04-05T04:25:28;99712.69;;;-4.49;62.17
27685;BME280;46113;50.130;8.526;2023-04-05T04:28:14;99723.84;;;-4.54;61.80
27685;BME280;46113;50.130;8.526;2023-04-05T04:31:12;99730.81;;;-4.45;61.44
27685;BME280;46113;50.130;8.526;2023-04-05T04:34:12;99721.25;;;-4.53;61.18
27685;BME280;46113;50.130;8.526;2023-04-05T04:36:41;99726.44;;;-4.51;61.89
27685;BME280;46113;50.130;8.526;2023-04-05T04:39:39;99719.56;;;-4.51;62.24
27685;BME280;46113;50.130;8.526;2023-04-05T04:42:25;99720.06;;;-4.80;62.95
27685;BME280;46113;50.130;8.526;2023-04-05T04:45:08;99719.03;;;-4.94;62.14
27685;BME280;46113;50.130;8.526;2023-04-05T04:47:45;99716.84;;;-4.62;63.25
27685;BME280;46113;50.130;8.526;2023-04-05T04:50:23;99711.75;;;-4.57;61.92
27685;BME280;46113;50.130;8.526;2023-04-05T04:52:52;99706.66;;;-4.51;61.77
27685;BME280;46113;50.130;8.526;2023-04-05T04:55:20;99703.25;;;-4.46;62.57
27685;BME280;46113;50.130;8.526;2023-04-05T04:57:51;99706.59;;;-4.57;62.68
27685;BME280;46113;50.130;8.526;2023-04-05T05:00:19;99709.28;;;-4.46;62.33
27685;BME280;46113;50.130;8.526;2023-04-05T05:02:47;99710.13;;;-4.47;62.65
27685;BME280;46113;50.130;8.526;2023-04-05T05:05:15;99713.56;;;-4.45;62.57
27685;BME280;46113;50.130;8.526;2023-04-05T05:07:42;99716.16;;;-4.45;62.09
27685;BME280;46113;50.130;8.526;2023-04-05T05:10:10;99722.09;;;-4.54;61.82
27685;BME280;46113;50.130;8.526;2023-04-05T05:12:37;99726.53;;;-4.42;61.85
27685;BME280;46113;50.130;8.526;2023-04-05T05:15:04;99721.38;;;-4.42;61.34
27685;BME280;46113;50.130;8.526;2023-04-05T05:17:31;99717.06;;;-4.43;61.80
27685;BME280;46113;50.130;8.526;2023-04-05T05:20:00;99723.97;;;-4.40;61.64
27685;BME280;46113;50.130;8.526;2023-04-05T05:22:30;99716.28;;;-4.34;62.18
27685;BME280;46113;50.130;8.526;2023-04-05T05:24:57;99719.75;;;-4.32;61.88
27685;BME280;46113;50.130;8.526;2023-04-05T05:27:23;99725.84;;;-4.28;62.11
27685;BME280;46113;50.130;8.526;2023-04-05T05:29:50;99731.91;;;-4.23;61.61
27685;BME280;46113;50.130;8.526;2023-04-05T05:32:16;99725.00;;;-4.26;61.88
27685;BME280;46113;50.130;8.526;2023-04-05T05:34:43;99719.91;;;-4.18;62.17
27685;BME280;46113;50.130;8.526;2023-04-05T05:37:10;99724.31;;;-4.04;62.13
27685;BME280;46113;50.130;8.526;2023-04-05T05:39:38;99724.47;;;-3.90;62.09
27685;BME280;46113;50.130;8.526;2023-04-05T05:42:05;99722.75;;;-3.88;61.12
27685;BME280;46113;50.130;8.526;2023-04-05T05:44:31;99729.75;;;-3.78;60.96
27685;BME280;46113;50.130;8.526;2023-04-05T05:46:58;99731.50;;;-3.74;61.47
27685;BME280;46113;50.130;8.526;2023-04-05T05:49:25;99731.63;;;-3.60;61.59
27685;BME280;46113;50.130;8.526;2023-04-05T05:51:51;99739.44;;;-3.55;61.30
27685;BME280;46113;50.130;8.526;2023-04-05T05:54:18;99737.81;;;-3.42;60.54
27685;BME280;46113;50.130;8.526;2023-04-05T05:56:45;99732.66;;;-3.37;60.91
27685;BME280;46113;50.130;8.526;2023-04-05T05:59:12;99739.66;;;-3.24;59.99
27685;BME280;46113;50.130;8.526;2023-04-05T06:16:10;99734.78;;;-2.57;58.73
27685;BME280;46113;50.130;8.526;2023-04-05T06:18:37;99734.00;;;-2.40;58.91
27685;BME280;46113;50.130;8.526;2023-04-05T06:21:04;99726.22;;;-2.46;58.75
27685;BME280;46113;50.130;8.526;2023-04-05T06:23:31;99728.75;;;-2.59;58.62
27685;BME280;46113;50.130;8.526;2023-04-05T06:25:58;99733.19;;;-2.24;57.88
27685;BME280;46113;50.130;8.526;2023-04-05T06:28:24;99731.44;;;-2.20;58.10
27685;BME280;46113;50.130;8.526;2023-04-05T06:30:53;99731.47;;;-2.12;57.70
27685;BME280;46113;50.130;8.526;2023-04-05T06:33:23;99725.47;;;-1.97;57.01
27685;BME280;46113;50.130;8.526;2023-04-05T06:36:00;99721.13;;;-1.72;56.31
27685;BME280;46113;50.130;8.526;2023-04-05T06:38:27;99727.19;;;-1.63;55.60
27685;BME280;46113;50.130;8.526;2023-04-05T06:40:57;99724.59;;;-1.57;55.16
27685;BME280;46113;50.130;8.526;2023-04-05T06:43:23;99726.31;;;-1.39;54.82
27685;BME280;46113;50.130;8.526;2023-04-05T06:45:50;99715.97;;;-1.42;56.17
27685;BME280;46113;50.130;8.526;2023-04-05T06:48:16;99722.84;;;-1.36;55.31
27685;BME280;46113;50.130;8.526;2023-04-05T06:50:43;99718.53;;;-1.45;55.37
27685;BME280;46113;50.130;8.526;2023-04-05T06:53:10;99717.63;;;-1.18;54.71
27685;BME280;46113;50.130;8.526;2023-04-05T06:55:38;99721.06;;;-1.06;54.36
27685;BME280;46113;50.130;8.526;2023-04-05T06:58:05;99723.63;;;-0.92;53.42
27685;BME280;46113;50.130;8.526;2023-04-05T07:00:31;99721.88;;;-0.79;53.15
27685;BME280;46113;50.130;8.526;2023-04-05T07:02:58;99715.81;;;-0.81;53.66
27685;BME280;46113;50.130;8.526;2023-04-05T07:05:26;99720.09;;;-0.71;54.12
27685;BME280;46113;50.130;8.526;2023-04-05T07:07:52;99723.69;;;-1.14;53.94
27685;BME280;46113;50.130;8.526;2023-04-05T07:10:19;99715.75;;;-0.69;53.83
27685;BME280;46113;50.130;8.526;2023-04-05T07:12:46;99711.34;;;-0.53;53.03
27685;BME280;46113;50.130;8.526;2023-04-05T07:15:12;99715.53;;;-0.25;52.79
27685;BME280;46113;50.130;8.526;2023-04-05T07:17:39;99710.38;;;-0.31;52.87
27685;BME280;46113;50.130;8.526;2023-04-05T07:20:06;99701.66;;;-0.24;51.80
27685;BME280;46113;50.130;8.526;2023-04-05T07:22:33;99700.91;;;-0.40;52.26
27685;BME280;46113;50.130;8.526;2023-04-05T07:25:01;99708.47;;;-0.04;51.35
27685;BME280;46113;50.130;8.526;2023-04-05T07:27:31;99710.13;;;0.06;51.12
27685;BME280;46113;50.130;8.526;2023-04-05T07:29:57;99703.19;;;0.10;49.74
27685;BME280;46113;50.130;8.526;2023-04-05T07:32:24;99708.19;;;0.33;48.54
27685;BME280;46113;50.130;8.526;2023-04-05T07:34:51;99701.75;;;0.73;48.56
27685;BME280;46113;50.130;8.526;2023-04-05T07:37:17;99691.09;;;0.96;47.24
27685;BME280;46113;50.130;8.526;2023-04-05T07:39:44;99693.41;;;1.26;47.68
27685;BME280;46113;50.130;8.526;2023-04-05T07:42:10;99692.16;;;1.54;46.13
27685;BME280;46113;50.130;8.526;2023-04-05T07:44:37;99698.34;;;1.46;44.78
27685;BME280;46113;50.130;8.526;2023-04-05T07:47:03;99693.66;;;1.00;45.74
27685;BME280;46113;50.130;8.526;2023-04-05T07:49:30;99695.66;;;1.53;44.05
27685;BME280;46113;50.130;8.526;2023-04-05T07:51:57;99697.63;;;1.33;44.92
27685;BME280;46113;50.130;8.526;2023-04-05T07:54:23;99700.44;;;1.19;45.00
27685;BME280;46113;50.130;8.526;2023-04-05T07:56:50;99691.91;;;1.03;44.90
27685;BME280;46113;50.130;8.526;2023-04-05T07:59:17;99690.50;;;1.48;44.40
27685;BME280;46113;50.130;8.526;2023-04-05T08:01:43;99694.69;;;1.60;44.22
27685;BME280;46113;50.130;8.526;2023-04-05T08:04:10;99686.75;;;1.68;43.03
27685;BME280;46113;50.130;8.526;2023-04-05T08:06:37;99689.91;;;1.90;42.60
27685;BME280;46113;50.130;8.526;2023-04-05T08:09:04;99685.34;;;2.05;41.90
27685;BME280;46113;50.130;8.526;2023-04-05T08:11:31;99685.16;;;2.17;41.99
27685;BME280;46113;50.130;8.526;2023-04-05T08:13:58;99680.94;;;2.08;41.97
27685;BME280;46113;50.130;8.526;2023-04-05T08:16:26;99675.84;;;2.00;41.34
27685;BME280;46113;50.130;8.526;2023-04-05T08:18:53;99670.25;;;2.22;40.31
27685;BME280;46113;50.130;8.526;2023-04-05T08:21:19;99673.47;;;2.40;41.44
27685;BME280;46113;50.130;8.526;2023-04-05T08:23:46;99666.81;;;2.71;39.88
27685;BME280;46113;50.130;8.526;2023-04-05T08:26:13;99673.41;;;2.41;39.45
27685;BME280;46113;50.130;8.526;2023-04-05T08:28:39;99670.75;;;2.93;38.77
27685;BME280;46113;50.130;8.526;2023-04-05T08:31:06;99672.19;;;3.08;38.50
27685;BME280;46113;50.130;8.526;2023-04-05T08:33:33;99671.94;;;3.64;38.55
27685;BME280;46113;50.130;8.526;2023-04-05T08:36:07;99658.41;;;3.43;38.11
27685;BME280;46113;50.130;8.526;2023-04-05T08:38:34;99657.66;;;3.36;38.03
27685;BME280;46113;50.130;8.526;2023-04-05T08:41:13;99671.72;;;3.30;40.51
27685;BME280;46113;50.130;8.526;2023-04-05T08:43:55;99672.91;;;3.17;40.34
27685;BME280;46113;50.130;8.526;2023-04-05T08:46:23;99661.97;;;3.39;38.16
27685;BME280;46113;50.130;8.526;2023-04-05T08:48:51;99661.09;;;3.38;39.29
27685;BME280;46113;50.130;8.526;2023-04-05T08:51:22;99658.97;;;3.15;38.01
27685;BME280;46113;50.130;8.526;2023-04-05T08:53:49;99661.66;;;3.54;36.67
27685;BME280;46113;50.130;8.526;2023-04-05T08:56:19;99663.78;;;3.37;37.25
27685;BME280;46113;50.130;8.526;2023-04-05T08:59:00;99660.47;;;3.27;37.98
27685;BME280;46113;50.130;8.526;2023-04-05T09:01:29;99663.25;;;3.19;36.99
27685;BME280;46113;50.130;8.526;2023-04-05T09:04:08;99655.25;;;3.27;37.38
27685;BME280;46113;50.130;8.526;2023-04-05T09:06:37;99650.75;;;3.33;37.77
27685;BME280;46113;50.130;8.526;2023-04-05T09:09:07;99653.84;;;3.10;36.06
27685;BME280;46113;50.130;8.526;2023-04-05T09:11:35;99646.34;;;3.35;38.55
27685;BME280;46113;50.130;8.526;2023-04-05T09:14:02;99653.47;;;3.70;35.43
27685;BME280;46113;50.130;8.526;2023-04-05T09:16:32;99652.22;;;3.47;36.56
27685;BME280;46113;50.130;8.526;2023-04-05T09:19:02;99649.28;;;4.00;37.01
27685;BME280;46113;50.130;8.526;2023-04-05T10:35:18;99609.91;;;4.04;35.77
27685;BME280;46113;50.130;8.526;2023-04-05T10:38:09;99608.50;;;3.90;32.92
27685;BME280;46113;50.130;8.526;2023-04-05T10:40:38;99605.25;;;3.80;34.58
27685;BME280;46113;50.130;8.526;2023-04-05T10:43:14;99604.47;;;3.77;33.04
27685;BME280;46113;50.130;8.526;2023-04-05T10:45:43;99601.59;;;3.87;34.10
27685;BME280;46113;50.130;8.526;2023-04-05T10:48:46;99603.09;;;3.98;34.02
27685;BME280;46113;50.130;8.526;2023-04-05T10:51:14;99599.34;;;4.08;34.85
27685;BME280;46113;50.130;8.526;2023-04-05T10:53:40;99595.59;;;4.17;34.35
27685;BME280;46113;50.130;8.526;2023-04-05T10:56:08;99596.59;;;4.13;34.00
27685;BME280;46113;50.130;8.526;2023-04-05T10:58:35;99598.63;;;4.35;34.49
27685;BME280;46113;50.130;8.526;2023-04-05T11:01:05;99595.88;;;4.06;33.56
27685;BME280;46113;50.130;8.526;2023-04-05T11:03:49;99589.50;;;4.17;33.37
27685;BME280;46113;50.130;8.526;2023-04-05T11:09:07;99583.72;;;3.69;33.58
27685;BME280;46113;50.130;8.526;2023-04-05T11:11:38;99580.03;;;4.12;33.80
27685;BME280;46113;50.130;8.526;2023-04-05T11:16:50;99579.47;;;3.99;35.04
27685;BME280;46113;50.130;8.526;2023-04-05T11:22:23;99569.19;;;4.26;33.66
27685;BME280;46113;50.130;8.526;2023-04-05T11:27:30;99573.84;;;4.15;33.30
27685;BME280;46113;50.130;8.526;2023-04-05T11:29:59;99563.69;;;4.03;33.38
27685;BME280;46113;50.130;8.526;2023-04-05T11:32:39;99562.41;;;4.51;33.47
27685;BME280;46113;50.130;8.526;2023-04-05T11:35:13;99556.72;;;4.66;32.84
27685;BME280;46113;50.130;8.526;2023-04-05T11:38:20;99560.06;;;4.40;32.01
27685;BME280;46113;50.130;8.526;2023-04-05T11:40:47;99556.13;;;4.57;32.55
27685;BME280;46113;50.130;8.526;2023-04-05T11:43:14;99550.88;;;4.58;32.04
27685;BME280;46113;50.130;8.526;2023-04-05T11:45:41;99557.31;;;4.46;31.11
27685;BME280;46113;50.130;8.526;2023-04-05T11:48:10;99545.59;;;4.26;30.80
27685;BME280;46113;50.130;8.526;2023-04-05T11:50:38;99539.81;;;4.15;32.51
27685;BME280;46113;50.130;8.526;2023-04-05T11:53:14;99538.44;;;4.33;33.61
27685;BME280;46113;50.130;8.526;2023-04-05T11:55:48;99542.59;;;3.74;34.43
27685;BME280;46113;50.130;8.526;2023-04-05T11:58:18;99540.38;;;3.92;33.93
27685;BME280;46113;50.130;8.526;2023-04-05T12:00:57;99535.97;;;4.27;34.20
27685;BME280;46113;50.130;8.526;2023-04-05T12:03:26;99537.41;;;4.07;34.32
27685;BME280;46113;50.130;8.526;2023-04-05T12:05:56;99530.25;;;3.79;35.63
27685;BME280;46113;50.130;8.526;2023-04-05T12:08:39;99525.50;;;4.27;34.38
27685;BME280;46113;50.130;8.526;2023-04-05T12:11:09;99528.56;;;4.43;32.95
27685;BME280;46113;50.130;8.526;2023-04-05T12:13:37;99524.03;;;4.48;32.68
27685;BME280;46113;50.130;8.526;2023-04-05T12:16:05;99520.41;;;4.54;32.30
27685;BME280;46113;50.130;8.526;2023-04-05T12:18:36;99527.22;;;4.60;31.84
27685;BME280;46113;50.130;8.526;2023-04-05T12:21:05;99516.66;;;4.63;31.58
27685;BME280;46113;50.130;8.526;2023-04-05T12:23:34;99518.16;;;4.40;32.62
27685;BME280;46113;50.130;8.526;2023-04-05T12:26:02;99524.56;;;3.96;32.46
27685;BME280;46113;50.130;8.526;2023-04-05T12:28:51;99513.66;;;4.13;31.94
27685;BME280;46113;50.130;8.526;2023-04-05T12:34:01;99511.47;;;4.60;32.84
27685;BME280;46113;50.130;8.526;2023-04-05T12:36:29;99505.25;;;4.64;32.03
27685;BME280;46113;50.130;8.526;2023-04-05T12:38:57;99494.03;;;4.89;32.94
27685;BME280;46113;50.130;8.526;2023-04-05T12:41:28;99492.56;;;4.80;32.69
27685;BME280;46113;50.130;8.526;2023-04-05T12:43:55;99491.13;;;5.27;32.58
27685;BME280;46113;50.130;8.526;2023-04-05T12:46:46;99484.47;;;4.88;32.22
27685;BME280;46113;50.130;8.526;2023-04-05T12:49:17;99488.13;;;5.39;32.56
27685;BME280;46113;50.130;8.526;2023-04-05T12:51:45;99476.72;;;5.40;31.68
27685;BME280;46113;50.130;8.526;2023-04-05T12:54:20;99477.47;;;5.17;30.88
27685;BME280;46113;50.130;8.526;2023-04-05T12:56:49;99473.66;;;5.54;31.29
27685;BME280;46113;50.130;8.526;2023-04-05T12:59:16;99469.94;;;5.33;30.49
27685;BME280;46113;50.130;8.526;2023-04-05T13:01:42;99462.44;;;4.93;31.37
27685;BME280;46113;50.130;8.526;2023-04-05T13:04:09;99471.75;;;5.31;31.19
27685;BME280;46113;50.130;8.526;2023-04-05T13:06:39;99464.19;;;5.22;31.28
27685;BME280;46113;50.130;8.526;2023-04-05T13:09:05;99450.41;;;5.42;30.51
27685;BME280;46113;50.130;8.526;2023-04-05T13:11:32;99453.63;;;5.52;30.08
27685;BME280;46113;50.130;8.526;2023-04-05T13:13:58;99457.25;;;5.48;31.13
27685;BME280;46113;50.130;8.526;2023-04-05T13:16:25;99452.25;;;5.38;30.04
27685;BME280;46113;50.130;8.526;2023-04-05T13:18:52;99446.53;;;5.27;30.97
27685;BME280;46113;50.130;8.526;2023-04-05T13:21:19;99443.59;;;5.09;31.85
27685;BME280;46113;50.130;8.526;2023-04-05T13:23:45;99447.72;;;5.16;31.03
27685;BME280;46113;50.130;8.526;2023-04-05T13:26:12;99440.28;;;5.31;31.19
27685;BME280;46113;50.130;8.526;2023-04-05T13:28:38;99441.97;;;5.32;31.95
27685;BME280;46113;50.130;8.526;2023-04-05T13:31:05;99435.41;;;5.47;31.47
27685;BME280;46113;50.130;8.526;2023-04-05T13:33:33;99439.34;;;5.59;30.33
27685;BME280;46113;50.130;8.526;2023-04-05T13:36:00;99437.66;;;5.58;31.26
27685;BME280;46113;50.130;8.526;2023-04-05T13:38:27;99435.69;;;5.65;29.75
27685;BME280;46113;50.130;8.526;2023-04-05T13:40:53;99429.38;;;5.43;30.46
27685;BME280;46113;50.130;8.526;2023-04-05T13:43:20;99425.03;;;5.69;30.81
27685;BME280;46113;50.130;8.526;2023-04-05T13:45:48;99422.56;;;5.90;30.58
27685;BME280;46113;50.130;8.526;2023-04-05T13:48:14;99424.13;;;5.94;30.30
27685;BME280;46113;50.130;8.526;2023-04-05T13:50:41;99420.22;;;6.06;30.73
27685;BME280;46113;50.130;8.526;2023-04-05T13:53:08;99423.34;;;5.14;30.10
27685;BME280;46113;50.130;8.526;2023-04-05T13:55:34;99420.50;;;5.48;29.96
27685;BME280;46113;50.130;8.526;2023-04-05T13:58:01;99416.47;;;5.64;32.51
27685;BME280;46113;50.130;8.526;2023-04-05T14:00:27;99413.44;;;5.75;30.97
27685;BME280;46113;50.130;8.526;2023-04-05T14:02:54;99410.53;;;5.83;30.02
27685;BME280;46113;50.130;8.526;2023-04-05T14:05:21;99409.16;;;5.72;29.63
27685;BME280;46113;50.130;8.526;2023-04-05T14:07:47;99414.00;;;5.32;31.52
27685;BME280;46113;50.130;8.526;2023-04-05T14:10:15;99407.03;;;5.31;31.42
27685;BME280;46113;50.130;8.526;2023-04-05T14:12:43;99407.50;;;5.70;31.08
27685;BME280;46113;50.130;8.526;2023-04-05T14:15:10;99407.06;;;6.06;31.43
27685;BME280;46113;50.130;8.526;2023-04-05T14:17:36;99404.38;;;5.84;31.94
27685;BME280;46113;50.130;8.526;2023-04-05T14:20:03;99404.13;;;6.16;30.25
27685;BME280;46113;50.130;8.526;2023-04-05T14:22:30;99405.59;;;5.99;30.12
27685;BME280;46113;50.130;8.526;2023-04-05T14:24:57;99400.81;;;5.61;30.07
27685;BME280;46113;50.130;8.526;2023-04-05T14:27:23;99393.72;;;5.89;31.58
27685;BME280;46113;50.130;8.526;2023-04-05T14:29:55;99391.16;;;6.11;29.59
27685;BME280;46113;50.130;8.526;2023-04-05T14:32:23;99390.63;;;6.01;29.90
27685;BME280;46113;50.130;8.526;2023-04-05T14:34:51;99382.06;;;5.72;30.30
27685;BME280;46113;50.130;8.526;2023-04-05T14:37:17;99379.06;;;6.07;31.81
27685;BME280;46113;50.130;8.526;2023-04-05T14:39:44;99379.94;;;5.82;31.97
27685;BME280;46113;50.130;8.526;2023-04-05T14:42:12;99375.84;;;5.75;30.96
27685;BME280;46113;50.130;8.526;2023-04-05T14:44:38;99370.31;;;6.06;30.18
27685;BME280;46113;50.130;8.526;2023-04-05T14:47:05;99368.06;;;6.19;30.18
27685;BME280;46113;50.130;8.526;2023-04-05T14:49:31;99372.19;;;6.03;32.21
27685;BME280;46113;50.130;8.526;2023-04-05T14:51:58;99364.16;;;6.07;32.61
27685;BME280;46113;50.130;8.526;2023-04-05T14:54:25;99373.13;;;6.25;32.25
27685;BME280;46113;50.130;8.526;2023-04-05T14:56:51;99375.22;;;5.68;32.21
27685;BME280;46113;50.130;8.526;2023-04-05T14:59:18;99370.78;;;5.94;32.76
27685;BME280;46113;50.130;8.526;2023-04-05T15:01:45;99371.94;;;5.61;31.28
27685;BME280;46113;50.130;8.526;2023-04-05T15:04:12;99379.44;;;5.96;31.72
27685;BME280;46113;50.130;8.526;2023-04-05T15:06:39;99370.59;;;5.75;32.07
27685;BME280;46113;50.130;8.526;2023-04-05T15:09:06;99367.03;;;5.99;30.91
27685;BME280;46113;50.130;8.526;2023-04-05T15:11:35;99366.25;;;5.97;31.45
27685;BME280;46113;50.130;8.526;2023-04-05T15:14:04;99358.56;;;6.39;32.77
27685;BME280;46113;50.130;8.526;2023-04-05T15:16:30;99362.44;;;6.06;31.18
27685;BME280;46113;50.130;8.526;2023-04-05T15:18:57;99360.88;;;6.24;31.26
27685;BME280;46113;50.130;8.526;2023-04-05T15:21:27;99361.44;;;6.09;31.77
27685;BME280;46113;50.130;8.526;2023-04-05T15:23:54;99364.50;;;6.44;30.95
27685;BME280;46113;50.130;8.526;2023-04-05T15:26:21;99363.44;;;6.26;34.44
27685;BME280;46113;50.130;8.526;2023-04-05T15:28:47;99356.31;;;6.52;32.87
27685;BME280;46113;50.130;8.526;2023-04-05T15:31:14;99360.94;;;6.45;32.63
27685;BME280;46113;50.130;8.526;2023-04-05T15:33:40;99369.81;;;5.96;32.91
27685;BME280;46113;50.130;8.526;2023-04-05T15:36:07;99368.25;;;5.67;33.59
27685;BME280;46113;50.130;8.526;2023-04-05T15:38:34;99365.69;;;6.13;36.70
27685;BME280;46113;50.130;8.526;2023-04-05T15:41:01;99366.41;;;6.17;35.37
27685;BME280;46113;50.130;8.526;2023-04-05T15:43:30;99360.75;;;6.28;35.61
27685;BME280;46113;50.130;8.526;2023-04-05T15:45:57;99356.34;;;6.06;40.00
27685;BME280;46113;50.130;8.526;2023-04-05T15:48:24;99355.56;;;6.02;38.51
27685;BME280;46113;50.130;8.526;2023-04-05T15:50:51;99363.69;;;5.96;40.58
27685;BME280;46113;50.130;8.526;2023-04-05T15:53:18;99357.09;;;5.84;38.64
27685;BME280;46113;50.130;8.526;2023-04-05T15:55:44;99358.66;;;5.13;41.03
27685;BME280;46113;50.130;8.526;2023-04-05T15:58:11;99358.84;;;5.34;39.95
27685;BME280;46113;50.130;8.526;2023-04-05T16:00:38;99356.91;;;5.14;41.09
27685;BME280;46113;50.130;8.526;2023-04-05T16:03:05;99358.19;;;5.00;42.20
27685;BME280;46113;50.130;8.526;2023-04-05T16:05:31;99356.63;;;5.22;42.45
27685;BME280;46113;50.130;8.526;2023-04-05T16:07:58;99355.84;;;4.65;44.95
27685;BME280;46113;50.130;8.526;2023-04-05T16:10:25;99352.78;;;5.06;43.35
27685;BME280;46113;50.130;8.526;2023-04-05T16:12:52;99351.47;;;4.66;45.12
27685;BME280;46113;50.130;8.526;2023-04-05T16:15:19;99350.63;;;4.64;45.64
27685;BME280;46113;50.130;8.526;2023-04-05T16:17:46;99347.78;;;4.43;45.72
27685;BME280;46113;50.130;8.526;2023-04-05T16:20:13;99351.41;;;4.09;46.34
27685;BME280;46113;50.130;8.526;2023-04-05T16:22:40;99355.16;;;4.00;47.21
27685;BME280;46113;50.130;8.526;2023-04-05T16:25:07;99352.94;;;4.18;48.21
27685;BME280;46113;50.130;8.526;2023-04-05T16:27:33;99355.72;;;4.11;48.83
27685;BME280;46113;50.130;8.526;2023-04-05T16:30:01;99354.53;;;3.92;46.81
27685;BME280;46113;50.130;8.526;2023-04-05T16:32:27;99347.00;;;4.11;46.76
27685;BME280;46113;50.130;8.526;2023-04-05T16:34:54;99349.63;;;3.81;47.23
27685;BME280;46113;50.130;8.526;2023-04-05T16:37:21;99347.56;;;3.91;48.11
27685;BME280;46113;50.130;8.526;2023-04-05T16:39:47;99352.25;;;4.11;47.30
27685;BME280;46113;50.130;8.526;2023-04-05T16:42:14;99342.34;;;3.91;48.01
27685;BME280;46113;50.130;8.526;2023-04-05T16:44:41;99350.66;;;4.05;47.41
27685;BME280;46113;50.130;8.526;2023-04-05T16:47:07;99345.84;;;3.91;47.41
27685;BME280;46113;50.130;8.526;2023-04-05T16:49:34;99356.56;;;4.12;45.90
27685;BME280;46113;50.130;8.526;2023-04-05T16:52:00;99346.44;;;3.99;48.55
27685;BME280;46113;50.130;8.526;2023-04-05T16:54:27;99351.81;;;4.25;46.66
27685;BME280;46113;50.130;8.526;2023-04-05T16:56:54;99347.72;;;4.16;47.76
27685;BME280;46113;50.130;8.526;2023-04-05T16:59:21;99352.97;;;4.45;47.02
27685;BME280;46113;50.130;8.526;2023-04-05T17:01:48;99348.63;;;4.45;46.73
27685;BME280;46113;50.130;8.526;2023-04-05T17:04:15;99348.41;;;4.51;46.86
27685;BME280;46113;50.130;8.526;2023-04-05T17:06:41;99346.81;;;4.17;46.95
27685;BME280;46113;50.130;8.526;2023-04-05T17:09:08;99348.53;;;4.47;45.85
27685;BME280;46113;50.130;8.526;2023-04-05T17:11:35;99352.91;;;4.48;45.97
27685;BME280;46113;50.130;8.526;2023-04-05T17:14:01;99345.19;;;4.13;48.06
27685;BME280;46113;50.130;8.526;2023-04-05T17:16:28;99348.19;;;4.31;46.27
27685;BME280;46113;50.130;8.526;2023-04-05T17:18:55;99350.50;;;4.40;47.01
27685;BME280;46113;50.130;8.526;2023-04-05T17:21:21;99351.50;;;4.07;48.00
27685;BME280;46113;50.130;8.526;2023-04-05T17:23:48;99350.31;;;3.87;47.94
27685;BME280;46113;50.130;8.526;2023-04-05T17:26:15;99356.34;;;4.20;47.38
27685;BME280;46113;50.130;8.526;2023-04-05T17:28:41;99354.81;;;4.12;47.59
27685;BME280;46113;50.130;8.526;2023-04-05T17:31:09;99354.41;;;4.26;46.75
27685;BME280;46113;50.130;8.526;2023-04-05T17:33:36;99361.19;;;4.32;47.06
27685;BME280;46113;50.130;8.526;2023-04-05T17:36:03;99356.16;;;3.96;48.13
27685;BME280;46113;50.130;8.526;2023-04-05T17:38:29;99360.19;;;3.76;46.99
27685;BME280;46113;50.130;8.526;2023-04-05T17:40:56;99363.38;;;3.56;48.41
27685;BME280;46113;50.130;8.526;2023-04-05T17:43:24;99365.75;;;3.30;49.01
27685;BME280;46113;50.130;8.526;2023-04-05T17:45:52;99365.66;;;3.33;48.02
27685;BME280;46113;50.130;8.526;2023-04-05T17:48:19;99364.78;;;3.00;48.99
27685;BME280;46113;50.130;8.526;2023-04-05T17:50:46;99371.53;;;3.08;47.90
27685;BME280;46113;50.130;8.526;2023-04-05T17:53:13;99371.00;;;2.94;47.26
27685;BME280;46113;50.130;8.526;2023-04-05T17:55:41;99364.16;;;2.52;48.24
27685;BME280;46113;50.130;8.526;2023-04-05T17:58:08;99371.69;;;3.02;46.86
27685;BME280;46113;50.130;8.526;2023-04-05T18:00:35;99373.09;;;2.79;47.02
27685;BME280;46113;50.130;8.526;2023-04-05T18:03:01;99376.59;;;2.40;47.65
27685;BME280;46113;50.130;8.526;2023-04-05T18:05:33;99374.88;;;2.79;47.15
27685;BME280;46113;50.130;8.526;2023-04-05T18:08:00;99378.03;;;2.92;47.65
27685;BME280;46113;50.130;8.526;2023-04-05T18:10:27;99374.72;;;2.85;47.61
27685;BME280;46113;50.130;8.526;2023-04-05T18:12:53;99381.41;;;2.59;46.97
27685;BME280;46113;50.130;8.526;2023-04-05T18:15:20;99377.66;;;2.32;47.81
27685;BME280;46113;50.130;8.526;2023-04-05T18:17:47;99388.97;;;1.89;49.42
27685;BME280;46113;50.130;8.526;2023-04-05T18:20:13;99380.69;;;1.67;50.22
27685;BME280;46113;50.130;8.526;2023-04-05T18:22:40;99388.34;;;1.28;50.47
27685;BME280;46113;50.130;8.526;2023-04-05T18:25:07;99390.44;;;1.07;51.82
27685;BME280;46113;50.130;8.526;2023-04-05T18:27:35;99384.47;;;0.99;51.04
27685;BME280;46113;50.130;8.526;2023-04-05T18:30:02;99394.81;;;1.05;50.95
27685;BME280;46113;50.130;8.526;2023-04-05T18:32:28;99392.41;;;0.91;51.62
27685;BME280;46113;50.130;8.526;2023-04-05T18:34:55;99388.25;;;0.80;52.19
27685;BME280;46113;50.130;8.526;2023-04-05T18:37:22;99392.56;;;0.81;52.92
27685;BME280;46113;50.130;8.526;2023-04-05T18:39:50;99391.47;;;0.95;52.48
27685;BME280;46113;50.130;8.526;2023-04-05T18:42:17;99397.75;;;0.81;52.57
27685;BME280;46113;50.130;8.526;2023-04-05T18:44:43;99403.94;;;0.73;52.72
27685;BME280;46113;50.130;8.526;2023-04-05T18:47:10;99396.84;;;0.84;53.07
27685;BME280;46113;50.130;8.526;2023-04-05T18:49:37;99405.84;;;0.61;51.49
27685;BME280;46113;50.130;8.526;2023-04-05T18:52:04;99406.50;;;0.11;53.83
27685;BME280;46113;50.130;8.526;2023-04-05T18:54:31;99404.97;;;-0.02;53.46
27685;BME280;46113;50.130;8.526;2023-04-05T18:56:57;99410.59;;;0.31;51.95
27685;BME280;46113;50.130;8.526;2023-04-05T18:59:24;99418.56;;;0.20;52.42